Tiempo atmosférico en la estación meteorológica de Ceuta, Ceuta (87 m.)



Fecha
DESCASC
Temp. máxima en grados centígrados (hora)
DESCASC
Temp. mínima en grados centígrados (hora)
DESCASC
Temp. media en grados centígrados
DESCASC
Racha de viento máxima en m/sg (hora)
DESCASC
Velocidad máxima media en intervalos de 10 minutos(hora)
DESCASC
Precipitaciones diarias en mm
DESCASC
Precipitaciones de 00:00 a 06:00 en mm
DESCASC
Precipitaciones de 06:00 a 12:00 en mm
DESCASC
Precipitaciones de 12:00 a 18:00 en mm
DESCASC
Precipitaciones de 18:00 a 24:00 en mm
DESCASC
16-01-2020 17.6 (14:40) 11.6 (03:10) 14.6 4.72 (03:50) 3.06 (12:40) 0 0 0 0 0
15-01-2020 17.2 (12:30) 11.6 (02:20) 14.4 4.17 (15:10) 2.5 (14:50) 0 0 0 0 0
14-01-2020 17.4 (14:50) 10.7 (02:10) 14 9.44 (18:10) 5 (17:50) 0 0 0 0 0
13-01-2020 16.6 (13:10) 11.4 (23:59) 14 6.67 (13:50) 3.89 (14:20) 0 0 0 0 0
12-01-2020 16.6 (14:30) 13.1 (00:00) 14.9 7.78 (06:20) 4.72 (01:30) 0.6 0.6 0 0 0
11-01-2020 16.3 (12:10) 11.7 (00:00) 14 10 (12:30) 6.39 (12:30) 0 0 0 0 0
10-01-2020 15.8 (11:30) 11.9 (00:00) 13.8 10.83 (06:10) 4.17 (06:10) 0 0 0 0 0
09-01-2020 16.7 (13:50) 11.8 (00:00) 14.3 6.39 (23:59) 3.89 (11:20) 0 0 0 0 0
08-01-2020 16.7 (13:30) 11.5 (00:00) 14.1 5.28 (23:10) 3.33 (23:40) 0 0 0 0 0
07-01-2020 16.2 (13:00) 13 (00:00) 14.6 7.5 (10:20) 4.44 (09:00) 0 0 0 0 0
06-01-2020 15.2 (13:20) 13.2 (00:00) 14.2 8.06 (15:00) 4.72 (15:10) 0 0 0 0 0
05-01-2020 15.3 (12:00) 13.9 (00:00) 14.6 9.44 (03:00) 5.56 (04:40) 0 0 0 0 0
04-01-2020 14.7 (12:50) 10.7 (00:00) 12.7 7.22 (23:30) 4.44 (23:40) 0 0 0 0 0
03-01-2020 17.1 (15:20) 11.3 (00:00) 14.2 8.33 (17:30) 3.33 (16:10) 0 0 0 0 0
02-01-2020 15.9 (13:30) 12.3 (00:00) 14.1 6.39 (16:20) 4.17 (16:20) 0 0 0 0 0
01-01-2020 16.3 (15:10) 12.3 (00:00) 14.3 7.22 (04:00) 4.17 (02:40) 0 0 0 0 0
31-12-2019 16.5 (14:30) 13.9 (00:00) 15.2 10.28 (15:40) 6.11 (11:30) 0 0 0 0 0
30-12-2019 16.4 (14:40) 13.7 (00:00) 15 11.11 (12:00) 6.39 (19:30) 0 0 0 0 0
29-12-2019 16 (14:50) 14.3 (00:00) 15.2 11.67 (09:00) 6.67 (10:30) 0 0 0 0 0
28-12-2019 15.8 (13:30) 14.5 (00:00) 15.2 9.72 (13:30) 5.83 (13:20) 0 0 0 0 0
27-12-2019 15.9 (12:30) 13.5 (00:00) 14.7 10 (10:20) 5.56 (12:10) 0 0 0 0 0
26-12-2019 18.4 (12:50) 13.3 (00:00) 15.8 5 (20:00) 3.61 (13:20) 0 0 0 0 0
25-12-2019 20.1 (14:50) 13.6 (00:00) 16.9 5 (01:30) 3.61 (20:50) 0 0 0 0 0
24-12-2019 17.4 (13:00) 13.6 (00:00) 15.5 6.11 (13:00) 3.89 (12:40) 0 0 0 0 0
23-12-2019 21.4 (14:00) 14 (00:00) 17.7 5 (00:10) 2.5 (07:20) 0 0 0 0 0
22-12-2019 19.7 (14:10) 14.9 (00:00) 17.3 13.33 (02:40) 6.94 (02:40) 6 4.6 1.4 0 0
21-12-2019 19.9 (12:40) 18.1 (00:00) 19 16.67 (16:00) 6.67 (13:50) 12 1 0.8 0.2 10
20-12-2019 19.5 (13:40) 17.4 (00:00) 18.4 19.17 (13:40) 7.22 (12:10) 7.2 0.4 1.6 0.8 4.4

Gráficas

Temp. máximas Temp. mínimas Temp. medias Precipitaciones Rachas de viento máximas Velocidades máximas media en intervalos de 10 minutos

Datos horarios

Fecha y hora oficial Temperatura (ºC) Velocidad del viento (km/h) Dirección del viento Racha (km/h) Dirección de racha Precipitación (mm) Presión (hPa) Tendencia (hPa) Humedad (%)
2020-01-18 23:00:00 15.8 11 Sudoeste 31 Sudoeste 0.8 1015.4 -1.9 91
2020-01-18 22:00:00 15.2 11 Sudoeste 31 Sudoeste 2.2 1016 -1.7 92
2020-01-18 21:00:00 16.1 14 Sudoeste 30 Oeste 0.4 1016.6 -1.3 83
2020-01-18 20:00:00 17.3 10 Sudoeste 27 Oeste 0 1017.3 -1.1 65
2020-01-18 19:00:00 17.5 12 Oeste 35 Noroeste 0 1017.7 -0.9 65
2020-01-18 18:00:00 18 8 Sudoeste 17 Noroeste 0 1017.9 -1.1 63
2020-01-18 17:00:00 18.6 5 Sur 20 Sudoeste 0 1018.4 -1.5 62
2020-01-18 16:00:00 18.3 7 Sudoeste 16 Sudoeste 0 1018.6 -2.6 64
2020-01-18 15:00:00 17.8 4 Oeste 19 Sudoeste 0 1019 -2.8 64
2020-01-18 14:00:00 17.7 8 Oeste 20 Oeste 0 1019.9 -1.8 60
2020-01-18 13:00:00 18 6 Oeste 15 Oeste 0 1021.2 0 67
2020-01-18 12:00:00 17 9 Sudoeste 18 Sudoeste 0 1021.8 1.1 72
2020-01-18 11:00:00 15.9 5 Norte 22 Sudoeste 0 1021.7 1.6 76
2020-01-18 10:00:00 14.9 5 Sudeste 11 Sur 0 1021.2 1.3 80
2020-01-18 09:00:00 13.3 2 Nordeste 9 Noroeste 0 1020.7 0.8 85
2020-01-18 08:00:00 13.7 5 Oeste 9 Sur 0 1020.1 0.2 84
2020-01-18 07:00:00 13.6 5 Sudoeste 6 Sudoeste 0 1019.9 -0.3 79
2020-01-18 06:00:00 13.6 3 Sur 9 Oeste 0 1019.9 -0.5 77
2020-01-18 05:00:00 13.5 3 Este 8 Oeste 0 1019.9 -0.8 74
2020-01-18 04:00:00 13.4 2 Sudeste 9 Noroeste 0 1020.2 -1 78
2020-01-18 03:00:00 13.7 2 Oeste 9 Oeste 0 1020.4 -0.9 74
2020-01-18 02:00:00 14.3 7 Sudoeste 10 Sudoeste 0 1020.7 -0.8 71
2020-01-18 01:00:00 14.7 3 Sudoeste 10 Sur 0 1021.2 -0.2 74
2020-01-18 00:00:00 15.4 4 Oeste 20 Noroeste 0 1021.3 0.1 70
2020-01-17 23:00:00 15.5 10 Noroeste 21 Noroeste 0 1021.5 0.4 75
2020-01-17 22:00:00 14.7 2 Sur 9 Oeste 0 1021.4 0.8 74
2020-01-17 21:00:00 15.5 3 Sur 8 Sudoeste 0 1021.2 1.1 73
2020-01-17 20:00:00 15.4 4 Oeste 12 Oeste 0 1021.1 1 75
2020-01-17 19:00:00 16.2 5 Sudoeste 8 Sudoeste 0 1020.6 0.5 73
2020-01-17 18:00:00 17.3 5 Sur 18 Oeste 0 1020.1 -0.4 68
2020-01-17 17:00:00 18.4 4 Oeste 14 Norte 0 1020.1 -1 65
2020-01-17 16:00:00 18.6 6 Norte 17 Noroeste 0 1020.1 -1.7 63
2020-01-17 15:00:00 19.5 8 Oeste 18 Nordeste 0 1020.5 -2 57
2020-01-17 14:00:00 19.5 7 Sur 13 Este 0 1021.1 -1.6 42
2020-01-17 13:00:00 19 5 Norte 14 Nordeste 0 1021.8 -0.1 45
2020-01-17 12:00:00 18.4 5 Oeste 14 Noroeste 0 1022.5 0.9 42
2020-01-17 11:00:00 17.4 5 Este 8 Este 0 1022.7 1.8 53
2020-01-17 10:00:00 15.4 2 Norte 7 Sudoeste 0 1021.9 1.6 53
2020-01-17 09:00:00 13.1 3 Sudoeste 9 Oeste 0.2 1021.6 1.6 53
2020-01-17 08:00:00 13.2 4 Sudeste 10 Sur 0 1020.9 1.1 57
2020-01-17 07:00:00 13.2 9 Sur 11 Sur 0 1020.3 0.1 59
2020-01-17 06:00:00 13.7 3 Oeste 11 Oeste 0 1020 -0.1 45
2020-01-17 05:00:00 13.4 4 Sudoeste 8 Noroeste 0 1019.8 -0.2 49
2020-01-17 04:00:00 13.3 5 Sudoeste 9 Sudoeste 0 1020.2 -0.2 52
2020-01-17 03:00:00 12.9 3 Nordeste 9 Oeste 0 1020.1 0 61
2020-01-17 02:00:00 12.5 0 Calma 7 Sur 0 1020 0.2 73
2020-01-17 01:00:00 12.7 4 Sudoeste 9 Sudoeste 0 1020.4 1 72
2020-01-17 00:00:00 12.9 6 Sudoeste 11 Sudoeste 0 1020.1 1 67
2020-01-16 23:00:00 12.4 4 Oeste 8 Oeste 0 1019.8 1 67
2020-01-16 22:00:00 12.4 3 Sudoeste 7 Oeste 0 1019.4 1.1 70
2020-01-16 21:00:00 13.1 6 Sudoeste 11 Sudoeste 0 1019.1 1.2 86
2020-01-16 20:00:00 13.5 7 Sudoeste 11 Sudoeste 0 1018.8 1.1 91
2020-01-16 19:00:00 13.8 4 Sudoeste 10 Sur 0 1018.3 0.9 89
2020-01-16 18:00:00 14.9 9 Sur 12 Sur 0 1017.9 0.3 84
2020-01-16 17:00:00 16.1 6 Sur 12 Sur 0 1017.7 -0.2 78
2020-01-16 16:00:00 15.7 6 Nordeste 14 Este 0 1017.4 -0.9 81
2020-01-16 15:00:00 16 9 Nordeste 15 Nordeste 0 1017.6 -1.4 83
2020-01-16 14:00:00 17.1 5 Sudeste 14 Este 0 1017.9 -0.8 71
2020-01-16 13:00:00 16.3 10 Nordeste 17 Nordeste 0 1018.3 0 83
2020-01-16 12:00:00 15 10 Nordeste 16 Nordeste 0 1019 1.3 86
2020-01-16 11:00:00 15 10 Nordeste 15 Nordeste 0 1018.7 1.2 87
2020-01-16 10:00:00 13.5 3 Noroeste 8 Noroeste 0 1018.3 1.5 95
2020-01-16 09:00:00 12.5 5 Noroeste 14 Norte 0 1017.7 1.1 95
2020-01-16 08:00:00 12.2 7 Norte 14 Norte 0 1017.5 0.6 97
2020-01-16 07:00:00 11.8 7 Noroeste 11 Noroeste 0 1016.8 -0.4 97
2020-01-16 06:00:00 11.7 5 Noroeste 9 Noroeste 0 1016.6 -0.6 95
2020-01-16 05:00:00 12.2 4 Norte 10 Noroeste 0 1016.9 -0.3 94
2020-01-16 04:00:00 12.2 7 Noroeste 17 Norte 0 1017.2 -0.2 94
2020-01-16 03:00:00 11.7 7 Noroeste 16 Norte 0 1017.2 0 87
2020-01-16 02:00:00 12 9 Noroeste 15 Norte 0 1017.2 0 87
2020-01-16 01:00:00 13 6 Norte 10 Norte 0 1017.4 0.1 66
2020-01-16 00:00:00 14.7 8 Sudoeste 11 Sudoeste 0 1017.2 -0.3 41
2020-01-15 23:00:00 14.6 6 Sudoeste 11 Oeste 0 1017.2 -0.2 44
2020-01-15 22:00:00 14.1 6 Sudoeste 12 Sudoeste 0 1017.3 0.3 57
2020-01-15 21:00:00 14.1 6 Sudoeste 12 Sudoeste 0 1017.5 0.9 65
2020-01-15 20:00:00 13.7 5 Sudoeste 11 Sudoeste 0 1017.4 1 77
2020-01-15 19:00:00 14.2 4 Sur 9 Sudoeste 0 1017 1 77
2020-01-15 18:00:00 15.3 8 Sur 11 Sur 0 1016.6 0.8 73
2020-01-15 17:00:00 17 6 Sur 14 Sur 0 1016.4 0.2 69
2020-01-15 16:00:00 16.1 6 Este 15 Nordeste 0 1016 -0.7 69
2020-01-15 15:00:00 15.9 9 Nordeste 14 Norte 0 1015.8 -1.3 75
2020-01-15 14:00:00 16.1 8 Nordeste 13 Norte 0 1016.2 -0.6 67
2020-01-15 13:00:00 16.2 8 Nordeste 12 Nordeste 0 1016.7 0.6 67
2020-01-15 12:00:00 16.8 6 Sudeste 10 Sur 0 1017.1 1.4 58
2020-01-15 11:00:00 16 6 Sur 12 Sur 0 1016.8 1.7 61
2020-01-15 10:00:00 14.6 5 Sur 8 Sur 0 1016.1 1.8 65
2020-01-15 09:00:00 11.7 5 Sudoeste 9 Oeste 0 1015.7 1.7 76
2020-01-15 08:00:00 12 5 Sudoeste 9 Sudoeste 0 1015.1 1.2 71
2020-01-15 07:00:00 12.4 8 Sudoeste 11 Sur 0 1014.3 0.2 70
2020-01-15 06:00:00 12.3 5 Sur 9 Sur 0 1014 -0.2 68
2020-01-15 05:00:00 12 4 Sudoeste 11 Oeste 0 1013.9 -0.3 69
2020-01-15 04:00:00 11.9 3 Oeste 9 Sudoeste 0 1014.1 -0.4 76
2020-01-15 03:00:00 11.9 3 Oeste 7 Sudoeste 0 1014.2 -0.4 79
2020-01-15 02:00:00 11.7 5 Oeste 8 Oeste 0 1014.2 -0.3 80
2020-01-15 01:00:00 12 3 Oeste 7 Oeste 0 1014.5 0.3 81
2020-01-15 00:00:00 12.3 4 Oeste 8 Oeste 0 1014.6 0.3 83
2020-01-14 23:00:00 12.4 4 Sudoeste 8 Oeste 0 1014.5 0.4 83
2020-01-14 22:00:00 12.3 6 Sudoeste 9 Sudoeste 0 1014.2 0.6 81
2020-01-14 21:00:00 12.9 2 Noroeste 8 Sudeste 0 1014.3 1.3 77
2020-01-14 20:00:00 13.9 6 Oeste 18 Noroeste 0 1014.1 1.2 71
2020-01-14 19:00:00 14.2 10 Oeste 34 Oeste 0 1013.6 0.7 69
2020-01-14 18:00:00 14.3 15 Noroeste 31 Noroeste 0 1013 0 70
2020-01-14 17:00:00 15.4 16 Noroeste 32 Noroeste 0 1012.9 -0.7 62
2020-01-14 16:00:00 15.7 14 Noroeste 28 Noroeste 0 1012.9 -1.6 62
2020-01-14 15:00:00 17.2 9 Sudoeste 26 Oeste 0 1013 -2 54
2020-01-14 14:00:00 16.2 12 Oeste 28 Oeste 0 1013.6 -1.1 63
2020-01-14 13:00:00 15.5 10 Oeste 23 Noroeste 0 1014.5 0.1 68
2020-01-14 12:00:00 15.6 8 Oeste 23 Oeste 0 1015 1.3 63
2020-01-14 11:00:00 15 8 Sudoeste 19 Oeste 0 1014.7 1.2 68
2020-01-14 10:00:00 12.5 8 Sudoeste 12 Sudoeste 0 1014.4 1.2 80
2020-01-14 09:00:00 11.8 9 Sudoeste 15 Sur 0 1013.7 0.8 82
2020-01-14 08:00:00 11.4 8 Sur 11 Sudoeste 0 1013.5 0.5 83
2020-01-14 07:00:00 11.1 7 Sudoeste 10 Sudoeste 0 1013.2 0 86
2020-01-14 06:00:00 11 6 Sudoeste 10 Sudoeste 0 1012.9 -0.5 85
2020-01-14 05:00:00 11 5 Sudoeste 12 Sudoeste 0 1013 -0.7 85
2020-01-14 04:00:00 10.9 5 Oeste 10 Sudoeste 0 1013.2 -1 84
2020-01-14 03:00:00 10.9 4 Oeste 8 Noroeste 0 1013.4 -1.1 94
2020-01-14 02:00:00 10.8 5 Noroeste 10 Norte 0 1013.7 -0.8 93
2020-01-14 01:00:00 10.8 7 Noroeste 11 Noroeste 0 1014.2 -0.4 92
2020-01-14 00:00:00 11.4 5 Noroeste 6 Noroeste 0 1014.5 -0.6 85
2020-01-13 23:00:00 11.7 2 Oeste 8 Sudoeste 0 1014.5 -0.6 78
2020-01-13 22:00:00 12 5 Sudoeste 12 Sudoeste 0 1014.6 -0.6 79
2020-01-13 21:00:00 12.5 5 Sudoeste 10 Sudoeste 0 1015.1 0 78
2020-01-13 20:00:00 12.7 6 Sudoeste 10 Sudoeste 0 1015.1 0 77
2020-01-13 19:00:00 13.2 7 Sudoeste 13 Sur 0 1015.2 -0.1 74
2020-01-13 18:00:00 14.2 8 Sur 13 Sur 0 1015.1 -0.2 71
2020-01-13 17:00:00 15.1 7 Este 17 Este 0 1015.1 -0.9 70
2020-01-13 16:00:00 15.8 9 Este 19 Nordeste 0 1015.3 -1.5 68
2020-01-13 15:00:00 15 13 Nordeste 21 Nordeste 0 1015.3 -2.1 74
2020-01-13 14:00:00 15.1 13 Nordeste 24 Nordeste 0 1016 -1.6 72
2020-01-13 13:00:00 16.4 6 Sudeste 15 Sur 0 1016.8 -0.4 66
2020-01-13 12:00:00 16.3 8 Sudeste 15 Sudeste 0 1017.4 0.7 70
2020-01-13 11:00:00 15.2 6 Sudeste 10 Sur 0 1017.6 0.9 74
2020-01-13 10:00:00 13.6 4 Sur 8 Sur 0 1017.2 0.6 81
2020-01-13 09:00:00 12.1 6 Sudoeste 9 Sudoeste 0 1016.7 0.2 88
2020-01-13 08:00:00 12.1 5 Sudoeste 10 Sudoeste 0 1016.7 -0.1 88
2020-01-13 07:00:00 12.9 4 Sudoeste 14 Sudeste 0 1016.6 -0.6 83
2020-01-13 06:00:00 13 8 Este 16 Este 0 1016.5 -1 80
2020-01-13 05:00:00 12.6 5 Sur 12 Sur 0 1016.8 -1 84
2020-01-13 04:00:00 12.5 6 Sudoeste 13 Sudoeste 0 1017.2 -1.2 85
2020-01-13 03:00:00 12.6 5 Sudoeste 12 Sudoeste 0 1017.5 -1.5 84
2020-01-13 02:00:00 13.2 8 Sudeste 16 Sudeste 0 1017.8 -0.8 77
2020-01-13 01:00:00 13.4 10 Sudeste 20 Sudeste 0 1018.4 -0.1 76
2020-01-13 00:00:00 13.3 8 Este 18 Sudeste 0 1019 0.6 79
2020-01-12 23:00:00 13.4 9 Sudeste 18 Sur 0 1018.6 0.2 78
2020-01-12 22:00:00 13.6 10 Sudeste 23 Sudeste 0 1018.5 0.4 77
2020-01-12 21:00:00 13.6 12 Sur 22 Sudeste 0 1018.4 0.5 77
2020-01-12 20:00:00 13.7 13 Sur 23 Sur 0 1018.4 0.3 76
2020-01-12 19:00:00 13.9 11 Sur 22 Sur 0 1018.1 0 74
2020-01-12 18:00:00 14.3 11 Sudeste 20 Sudeste 0 1017.9 -0.3 74
2020-01-12 17:00:00 15 13 Este 19 Sudeste 0 1018.1 -0.7 70
2020-01-12 16:00:00 15.9 11 Sudeste 19 Este 0 1018.1 -1.5 66
2020-01-12 15:00:00 16.3 10 Este 22 Este 0 1018.2 -2.4 65
2020-01-12 14:00:00 15.9 13 Este 22 Este 0 1018.8 -1.8 70
2020-01-12 13:00:00 16.2 14 Este 26 Este 0 1019.6 -0.6 68
2020-01-12 12:00:00 15.9 15 Este 26 Este 0 1020.6 0.8 68
2020-01-12 11:00:00 15.3 15 Este 26 Este 0 1020.6 1 70
2020-01-12 10:00:00 14.6 15 Este 21 Este 0 1020.2 0.8 72
2020-01-12 09:00:00 13.3 11 Este 25 Este 0 1019.8 0.6 76
2020-01-12 08:00:00 13.1 13 Este 24 Este 0 1019.6 0.2 78
2020-01-12 07:00:00 13.5 13 Este 28 Este 0 1019.4 -0.3 79
2020-01-12 06:00:00 13.4 13 Este 24 Este 0.6 1019.2 -0.4 80
2020-01-12 05:00:00 13.8 15 Este 28 Este 0 1019.4 -0.4 76
2020-01-12 04:00:00 13.8 15 Este 28 Sudeste 0 1019.7 -0.3 81
2020-01-12 03:00:00 13.8 14 Este 26 Este 0 1019.6 -0.6 82
2020-01-12 02:00:00 13.9 13 Sudeste 26 Este 0 1019.8 -0.4 81
2020-01-12 01:00:00 13.8 14 Este 27 Este 0 1020 0.1 78
2020-01-12 00:00:00 13.9 16 Este 28 Este 0 1020.2 0.4 79
2020-01-11 23:00:00 13.8 18 Este 30 Este 0 1020.2 0.8 78
2020-01-11 22:00:00 13.7 16 Este 30 Este 0 1019.9 0.9 78
2020-01-11 21:00:00 13.9 16 Este 32 Este 0 1019.8 1.2 77
2020-01-11 20:00:00 13.9 19 Este 35 Este 0 1019.4 1.1 75
2020-01-11 19:00:00 14.2 18 Este 32 Sudeste 0 1019 1 71
2020-01-11 18:00:00 14.4 18 Este 36 Este 0 1018.6 0.7 70
2020-01-11 17:00:00 14.7 18 Este 32 Sudeste 0 1018.3 0 71
2020-01-11 16:00:00 14.9 18 Sudeste 35 Este 0 1018 -1.1 71
2020-01-11 15:00:00 14.6 14 Sudeste 33 Sudeste 0 1017.9 -1.6 80
2020-01-11 14:00:00 15.3 18 Sudeste 36 Este 0 1018.3 -0.9 76
2020-01-11 13:00:00 15 17 Sudeste 36 Sudeste 0 1019.1 0.8 71
2020-01-11 12:00:00 16.2 19 Sudeste 32 Sudeste 0 1019.5 1.8 60
2020-01-11 11:00:00 15.3 13 Sudeste 23 Sudeste 0 1019.2 2 69
2020-01-11 10:00:00 12.9 5 Sur 9 Sudoeste 0 1018.3 1.7 83
2020-01-11 09:00:00 12.3 5 Sudoeste 8 Sudoeste 0 1017.7 1.5 84
2020-01-11 08:00:00 11.8 5 Sudoeste 8 Este 0 1017.2 1.1 86
2020-01-11 07:00:00 12.3 4 Sudeste 7 Sudeste 0 1016.6 0.8 83
2020-01-11 06:00:00 12.8 4 Sur 14 Sudeste 0 1016.2 0.5 84
2020-01-11 05:00:00 13.4 6 Sudeste 15 Este 0 1016.1 0.7 83
2020-01-11 04:00:00 13.9 6 Este 20 Nordeste 0 1015.8 0.2 87
2020-01-11 03:00:00 14.3 13 Nordeste 29 Nordeste 0 1015.7 -0.3 80
2020-01-11 02:00:00 14 12 Norte 25 Noroeste 0 1015.4 -0.8 89
2020-01-11 01:00:00 12.8 13 Noroeste 23 Noroeste 0 1015.6 -0.1 73
2020-01-11 00:00:00 12.6 9 Noroeste 17 Noroeste 0 1016 0.8 68
2020-01-10 23:00:00 11.9 2 Oeste 14 Oeste 0 1016.2 1.2 74
2020-01-10 22:00:00 12.8 6 Sudoeste 14 Noroeste 0 1015.7 1 71
2020-01-10 21:00:00 12.3 5 Sudoeste 24 Sudoeste 0 1015.2 1.3 78
2020-01-10 20:00:00 12.2 10 Oeste 26 Oeste 0 1015 1 80
2020-01-10 19:00:00 12.5 14 Oeste 32 Oeste 0 1014.7 0.8 77
2020-01-10 18:00:00 13 14 Oeste 29 Noroeste 0 1013.9 -0.2 75
2020-01-10 17:00:00 13.9 10 Oeste 25 Oeste 0 1014 -0.2 70
2020-01-10 16:00:00 14.8 11 Noroeste 31 Noroeste 0 1013.9 -1.4 63
2020-01-10 15:00:00 14.9 11 Noroeste 31 Noroeste 0 1014.1 -2.2 63
2020-01-10 14:00:00 14.9 5 Sudoeste 30 Sudoeste 0 1014.2 -2.3 69
2020-01-10 13:00:00 13.9 6 Oeste 24 Oeste 0 1015.3 -0.9 75
2020-01-10 12:00:00 14.6 9 Noroeste 23 Oeste 0 1016.3 0.4 76
2020-01-10 11:00:00 15.2 8 Sudoeste 17 Sudoeste 0 1016.5 0.9 68
2020-01-10 10:00:00 13.5 6 Sudoeste 26 Noroeste 0 1016.2 1.1 82
2020-01-10 09:00:00 13 11 Noroeste 27 Norte 0 1015.9 1.4 87
2020-01-10 08:00:00 13.3 10 Oeste 21 Oeste 0 1015.6 0.8 83
2020-01-10 07:00:00 13 9 Oeste 39 Noroeste 0 1015.1 -0.3 76
2020-01-10 06:00:00 13.5 11 Oeste 29 Noroeste 0 1014.5 -1.5 70
2020-01-10 05:00:00 14 8 Oeste 26 Norte 0 1014.8 -1.2 68
2020-01-10 04:00:00 12.6 6 Sudoeste 16 Oeste 0 1015.4 -0.9 77
2020-01-10 03:00:00 12.5 7 Oeste 18 Oeste 0 1016 -0.9 82
2020-01-10 02:00:00 12.8 6 Sudeste 17 Oeste 0 1016 -0.7 79
2020-01-10 01:00:00 12.7 6 Oeste 24 Noroeste 0 1016.3 -0.8 81
2020-01-10 00:00:00 12.6 12 Noroeste 23 Noroeste 0 1016.9 -0.3 77
2020-01-09 23:00:00 12 5 Oeste 8 Oeste 0 1016.7 -0.5 75
2020-01-09 22:00:00 12.1 7 Sudoeste 8 Oeste 0 1017.1 0.8 73
2020-01-09 21:00:00 12.4 6 Sudoeste 8 Oeste 0 1017.2 0.5 74
2020-01-09 20:00:00 12.7 5 Oeste 11 Sur 0 1017.2 0.7 77
2020-01-09 19:00:00 13.5 7 Sudoeste 12 Sudoeste 0 1016.3 0.2 75
2020-01-09 18:00:00 14.3 3 Sudeste 12 Sudeste 0 1016.7 0.3 71
2020-01-09 17:00:00 15.2 7 Sudeste 18 Sudeste 0 1016.5 -0.6 71
2020-01-09 16:00:00 15.4 11 Sudeste 18 Sudeste 0 1016.1 -1.7 72
2020-01-09 15:00:00 15.4 12 Sudeste 18 Sudeste 0 1016.4 -2 71
2020-01-09 14:00:00 16.1 11 Sudeste 18 Sudeste 0 1017.1 -1.5 71
2020-01-09 13:00:00 16.5 11 Sudeste 17 Sudeste 0 1017.8 -0.3 62
2020-01-09 12:00:00 16.2 9 Este 22 Este 0 1018.4 1 58
2020-01-09 11:00:00 14.7 11 Este 20 Este 0 1018.6 1.2 66
2020-01-09 10:00:00 14 9 Este 19 Este 0 1018.1 0.8 73
2020-01-09 09:00:00 13.5 10 Sudeste 20 Sudeste 0 1017.4 0 74
2020-01-09 08:00:00 13.7 9 Sudeste 21 Sudeste 0 1017.4 -0.2 77
2020-01-09 07:00:00 13.7 10 Este 20 Este 0 1017.3 -0.7 80
2020-01-09 06:00:00 13 8 Este 17 Sudeste 0 1017.4 -0.9 78
2020-01-09 05:00:00 13.1 9 Este 18 Este 0 1017.6 -0.6 76
2020-01-09 04:00:00 13.3 11 Este 19 Este 0 1018 -0.5 77
2020-01-09 03:00:00 13.7 10 Este 20 Este 0 1018.3 -0.5 76
2020-01-09 02:00:00 13.6 11 Este 22 Este 0 1018.2 -0.4 78
2020-01-09 01:00:00 13.9 12 Este 19 Este 0 1018.5 0.3 78
2020-01-09 00:00:00 13.9 9 Este 19 Sudeste 0 1018.8 1 80
2020-01-08 23:00:00 14.1 11 Este 17 Este 0 1018.6 1 78
2020-01-08 22:00:00 14.1 7 Este 15 Este 0 1018.2 1 81
2020-01-08 21:00:00 14.1 9 Este 15 Este 0 1017.8 0.8 82
2020-01-08 20:00:00 14.2 7 Sudeste 15 Sudeste 0 1017.6 0.6 82
2020-01-08 19:00:00 14.2 7 Sudeste 14 Sur 0 1017.2 0.3 84
2020-01-08 18:00:00 14.5 10 Sur 17 Sur 0 1017 -0.1 83
2020-01-08 17:00:00 15.5 10 Sudeste 17 Sudeste 0 1017 -0.3 78
2020-01-08 16:00:00 15.8 8 Sudeste 16 Sur 0 1016.9 -1 78
2020-01-08 15:00:00 16.3 7 Este 15 Sudeste 0 1017.1 -1.5 75
2020-01-08 14:00:00 16.3 6 Este 13 Sudeste 0 1017.3 -1.6 76
2020-01-08 13:00:00 16.2 6 Sudeste 12 Este 0 1017.9 -0.5 76
2020-01-08 12:00:00 15.9 5 Sur 13 Sudeste 0 1018.6 0.5 77
2020-01-08 11:00:00 14.4 5 Sudeste 13 Sur 0 1018.9 1.2 83
2020-01-08 10:00:00 13.1 5 Sudoeste 11 Sudoeste 0 1018.4 0.9 87
2020-01-08 09:00:00 11.7 5 Sudoeste 7 Sudoeste 0 1018.1 0.5 92
2020-01-08 08:00:00 11.8 5 Sudoeste 9 Sudoeste 0 1017.7 0 91
2020-01-08 07:00:00 12.2 5 Sudoeste 6 Sur 0 1017.5 -0.5 88
2020-01-08 06:00:00 12 4 Sur 7 Sudeste 0 1017.6 -0.7 90
2020-01-08 05:00:00 12.4 3 Sudeste 8 Sudeste 0 1017.7 -0.7 86
2020-01-08 04:00:00 12.5 4 Sudeste 9 Este 0 1018 -0.8 86
2020-01-08 03:00:00 12.4 3 Este 8 Este 0 1018.3 -1.3 87
2020-01-08 02:00:00 12.7 2 Este 13 Sudeste 0 1018.4 -1.2 86
2020-01-08 01:00:00 13.3 7 Sudeste 14 Este 0 1018.8 -1.1 83
2020-01-08 00:00:00 13.4 10 Sudeste 15 Sur 0 1019.6 0 84
2020-01-07 23:00:00 13.4 9 Sudeste 15 Sudeste 0 1019.6 0 83
2020-01-07 22:00:00 13.4 9 Sudeste 16 Sudeste 0 1019.9 0.7 81
2020-01-07 21:00:00 13.6 8 Sudeste 18 Este 0 1019.6 0.7 81
2020-01-07 20:00:00 13.7 11 Este 19 Este 0 1019.6 0.8 80
2020-01-07 19:00:00 13.8 11 Sudeste 21 Este 0 1019.2 0.4 80
2020-01-07 18:00:00 14 11 Este 22 Sudeste 0 1018.9 -0.1 80
2020-01-07 17:00:00 14.7 15 Este 24 Este 0 1018.8 -0.6 76
2020-01-07 16:00:00 14.9 14 Este 26 Este 0 1018.8 -1.2 74
2020-01-07 15:00:00 15.3 16 Este 24 Este 0 1019 -1.8 72
2020-01-07 14:00:00 16 14 Este 23 Sudeste 0 1019.4 -1.7 67
2020-01-07 13:00:00 16 14 Sudeste 24 Sudeste 0 1020 -0.5 67
2020-01-07 12:00:00 15.2 14 Sudeste 25 Este 0 1020.8 0.8 69
2020-01-07 11:00:00 14.6 13 Sudeste 27 Sudeste 0 1021.1 1.2 72
2020-01-07 10:00:00 14.1 13 Sudeste 24 Este 0 1020.5 1.3 72
2020-01-07 09:00:00 13.7 16 Este 27 Sudeste 0 1020 1.1 72
2020-01-07 08:00:00 13.8 13 Este 22 Este 0 1019.9 1.1 73
2020-01-07 07:00:00 13.6 10 Este 23 Este 0 1019.2 0.2 72
2020-01-07 06:00:00 13.7 12 Este 22 Este 0 1018.9 -0.2 72
2020-01-07 05:00:00 13.6 9 Este 20 Sudeste 0 1018.8 -0.6 75
2020-01-07 04:00:00 13.3 10 Sudeste 22 Sudeste 0 1019 -0.4 74
2020-01-07 03:00:00 13.2 11 Sudeste 19 Sudeste 0 1019.1 -0.5 74
2020-01-07 02:00:00 13.3 11 Sudeste 20 Sudeste 0 1019.4 -0.1 75
2020-01-07 01:00:00 13.3 10 Sudeste 23 Sudeste 0 1019.4 0.1 75
2020-01-07 00:00:00 13.4 13 Sudeste 21 Sudeste 0 1019.6 0.8 74
2020-01-06 23:00:00 13.3 12 Sudeste 24 Sudeste 0 1019.5 1.2 73
2020-01-06 22:00:00 13.6 13 Sudeste 26 Este 0 1019.3 1.5 73
2020-01-06 21:00:00 13.6 12 Este 24 Este 0 1018.8 1.2 73
2020-01-06 20:00:00 14.2 13 Este 23 Sudeste 0 1018.3 0.9 72
2020-01-06 19:00:00 14.1 13 Este 26 Este 0 1017.8 0.6 70
2020-01-06 18:00:00 14.2 13 Este 23 Este 0 1017.6 0.3 68
2020-01-06 17:00:00 14.2 15 Este 28 Este 0 1017.4 -0.4 80
2020-01-06 16:00:00 14 15 Este 29 Nordeste 0 1017.2 -1.2 79
2020-01-06 15:00:00 14.2 16 Este 29 Este 0 1017.3 -1.5 80
2020-01-06 14:00:00 15 11 Este 21 Este 0 1017.8 -1.2 69
2020-01-06 13:00:00 15 12 Sudeste 22 Sudeste 0 1018.4 0.1 69
2020-01-06 12:00:00 14.7 12 Este 24 Este 0 1018.8 1 74
2020-01-06 11:00:00 14.3 10 Este 19 Sudeste 0 1019 1.6 77
2020-01-06 10:00:00 14.2 10 Sudeste 22 Sudeste 0 1018.3 1.5 76